»·PEaware :: N41903 KLAX-KSNA

N41903 :: KLAX-KSNA

FLIGHT INFORMATION

Flight Status: Arrived
Operator: Privately registered:
United States
More flights under this callsign
Pilot: Anonymous 18254 (18254)
Aircraft: CESSNA 172 SKYHAWK
(C172)
More flights by this aircraft type
Origin: KLAX Los Angeles Intl
United States
Destination: KSNA John Wayne-Orange Co
United States
More flights between these airports :: More routes between these airports
Route: SLI8 SLI
File this flight plan on PilotEdge
Remarks: I-6 rating SLI8.SLI
Altitude:
(Current/Filed)
11,000ft
Speed:
(Current/Filed)
115kts
Departed: 12-Apr-18 07:21 AM
Arrived: 12-Apr-18 08:25 AM
Distance/Time
Traveled:
31nm/1:04
Distance/Time
To Go:
Arrived

Flight Plot

Page will automatically refresh every two minutes.

Flight plan parsing failed; only flown route is shown


Map Options




Map Legend


Flown Route
Filed Route
Departure Airport
Arrival Airport
Navaid (VOR, NDB)
Fix

Horizontal Profiles

Position Reports

Time Latitude Longitude Heading Altitude Ground
Speed
12-Apr-18 07:04 33.932738 -118.399121 21 111ft 0kts
12-Apr-18 07:05 33.932738 -118.399121 21 111ft 0kts
12-Apr-18 07:06 33.932738 -118.399121 21 111ft 0kts
12-Apr-18 07:07 33.932738 -118.399121 21 111ft 0kts
12-Apr-18 07:08 33.932738 -118.399121 21 111ft 0kts
12-Apr-18 07:09 33.932738 -118.399121 21 111ft 0kts
12-Apr-18 07:10 33.932738 -118.399121 21 111ft 0kts
12-Apr-18 07:11 33.932738 -118.399121 21 111ft 0kts
12-Apr-18 07:12 33.932738 -118.399121 21 111ft 0kts
12-Apr-18 07:13 33.932738 -118.399121 21 111ft 0kts
12-Apr-18 07:14 33.934073 -118.398309 38 109ft 7kts
12-Apr-18 07:15 33.935249 -118.391129 83 102ft 29kts
12-Apr-18 07:16 33.936067 -118.383296 81 96ft 14kts
12-Apr-18 07:17 33.936322 -118.382810 21 96ft 0kts
12-Apr-18 07:18 33.936322 -118.382810 21 96ft 0kts
12-Apr-18 07:19 33.936893 -118.382801 345 96ft 16kts
12-Apr-18 07:20 33.935578 -118.403822 261 666ft 85kts
12-Apr-18 07:21 33.932249 -118.434704 261 1471ft 98kts
12-Apr-18 07:22 33.918732 -118.460658 212 2258ft 100kts
12-Apr-18 07:23 33.893390 -118.480288 212 2761ft 112kts
12-Apr-18 07:24 33.867077 -118.500691 212 3259ft 112kts
12-Apr-18 07:25 33.839914 -118.508420 142 3767ft 111kts
12-Apr-18 07:26 33.814909 -118.484149 140 4000ft 125kts
12-Apr-18 07:27 33.787883 -118.457226 126 4000ft 129kts
12-Apr-18 07:28 33.784841 -118.414793 90 3999ft 129kts
12-Apr-18 07:33 33.932738 -118.399121 21 111ft 0kts
12-Apr-18 07:34 33.932738 -118.399121 21 111ft 0kts
12-Apr-18 07:35 33.932738 -118.399121 21 111ft 0kts
12-Apr-18 07:36 33.932738 -118.399121 21 111ft 0kts
12-Apr-18 07:37 33.932738 -118.399121 21 111ft 0kts
12-Apr-18 07:38 33.932769 -118.399107 20 111ft 1kts
12-Apr-18 07:39 33.934616 -118.397284 77 108ft 15kts
12-Apr-18 07:40 33.935349 -118.390370 83 102ft 23kts
12-Apr-18 07:41 33.935939 -118.384631 84 99ft 4kts
12-Apr-18 07:42 33.936324 -118.382813 13 96ft 0kts
12-Apr-18 07:43 33.936324 -118.382813 13 96ft 0kts
12-Apr-18 07:44 33.936828 -118.390067 260 283ft 61kts
12-Apr-18 07:45 33.935417 -118.415446 261 989ft 84kts
12-Apr-18 07:46 33.933512 -118.449144 262 1803ft 87kts
12-Apr-18 07:47 33.914651 -118.465371 211 2499ft 88kts
12-Apr-18 07:48 33.892797 -118.477653 211 3182ft 87kts
12-Apr-18 07:49 33.871138 -118.489724 211 3870ft 85kts
12-Apr-18 07:50 33.846779 -118.488749 152 4055ft 127kts
12-Apr-18 07:51 33.817716 -118.462511 151 4053ft 132kts
12-Apr-18 07:52 33.804453 -118.430567 89 4054ft 147kts
12-Apr-18 07:53 33.806670 -118.381493 89 4053ft 147kts
12-Apr-18 07:54 33.809826 -118.332554 84 4054ft 147kts
12-Apr-18 07:55 33.817506 -118.283990 76 4054ft 148kts
12-Apr-18 07:56 33.824995 -118.236189 115 4043ft 142kts
12-Apr-18 07:57 33.813101 -118.192068 96 4054ft 146kts
12-Apr-18 07:58 33.806855 -118.144671 110 4102ft 143kts
12-Apr-18 07:59 33.798028 -118.096832 110 4052ft 144kts
12-Apr-18 08:00 33.806492 -118.048250 24 4110ft 145kts
12-Apr-18 08:01 33.833979 -118.024447 39 4054ft 148kts
12-Apr-18 08:02 33.849820 -117.980743 94 4051ft 146kts
12-Apr-18 08:03 33.847595 -117.931927 96 4055ft 146kts
12-Apr-18 08:04 33.853236 -117.883675 67 4056ft 149kts
12-Apr-18 08:05 33.870522 -117.838361 63 4055ft 149kts
12-Apr-18 08:06 33.888541 -117.793284 63 4056ft 149kts
12-Apr-18 08:07 33.906604 -117.748108 63 4056ft 150kts
12-Apr-18 08:08 33.928092 -117.706736 22 4059ft 144kts
12-Apr-18 08:09 33.964933 -117.684127 20 3752ft 155kts
12-Apr-18 08:10 33.996924 -117.685830 267 3502ft 113kts
12-Apr-18 08:11 33.972187 -117.705131 200 3502ft 117kts
12-Apr-18 08:12 33.940096 -117.713236 195 3502ft 119kts
12-Apr-18 08:13 33.908074 -117.720078 214 3408ft 118kts
12-Apr-18 08:14 33.879777 -117.738736 212 3401ft 114kts
12-Apr-18 08:15 33.851657 -117.756717 212 3401ft 114kts
12-Apr-18 08:16 33.821975 -117.775672 212 2990ft 125kts
12-Apr-18 08:17 33.792194 -117.794565 212 2800ft 116kts
12-Apr-18 08:18 33.764190 -117.812481 214 2236ft 97kts
12-Apr-18 08:19 33.746775 -117.824389 223 1939ft 70kts
12-Apr-18 08:20 33.724467 -117.837101 216 1066ft 76kts
12-Apr-18 08:21 33.710086 -117.846855 216 686ft 67kts
12-Apr-18 08:22 33.694538 -117.856716 213 400ft 63kts
12-Apr-18 08:23 33.680954 -117.865338 218 73ft 47kts
12-Apr-18 08:24 33.678075 -117.868342 285 60ft 0kts
12-Apr-18 08:25 33.678075 -117.868342 285 60ft 0kts
12-Apr-18 08:26 33.677016 -117.869489 205 60ft 14kts
12-Apr-18 08:27 33.674889 -117.871968 264 60ft 0kts
12-Apr-18 08:28 33.674889 -117.871968 264 60ft 0kts

Navigation Log

Ident Type
Flight plan parsing failed, navigation log unavailable